Etusivu
METAR-TAF:

METAR-TAF

Lentoasemat :

Tri-City Airport

Parsons, Kansas, Yhdysvallat

Leveyspiiri: 37-19-40N, Pituuspiiri: 095-30-15W, korkeus merenpinnasta: 274 m

Tämänhetkinen sää

Tämä raportti tehtiin 23 minuuttia sitten, kello 02.52 UTC
Tuuli 3 kn etelästä/kaakosta
Lämpötila 26°C
Kosteus 74%
Ilmanpaine 1022 hPa
Näkyvyys: 16.1 km
selkeää

METAR: KPPF 210252Z AUTO 16003KT 10SM CLR 26/21 A3017 RMK AO2 SLP206 T02610206 53001

Aika: 22:15 (03:15 UTC)


TAF: puuttuu

Säähavainnot ja -ennusteet yli 4000 lentoasemalta (METAR- ja TAF-raportit).

Käytössä olevat sääasemat on merkitty karttaan keltaisilla ja punaisilla pisteillä.

Aseta hiiri pisteen päälle nähdäksesi sääaseman nimen.

Klikkaa sitten nähdäksesi säähavainnot ja -ennusteet.

Kartan vaihtaminen: klikkaa mustalla rastilla varustettuja vihreitä pisteitä, niin voit zoomata sisään; viivalla varustettua vihreää pistettä, niin voit zoomata ulos tai vihreitä nuolia, niin pääset viereisille kartoille.


METAR-TAF: